Terminal Aerodrome Forecast
Issued by NWS Binghamton, NY

Home | Current Version | Previous Version | Text Only | Print | Product List | Glossary On
Versions: 1 2 3 4 5 6 7 8 9 10 11 12 13 14 15 16 17 18 19 20 21 22 23 24 25
000
FTUS41 KBGM 222300
TAFSYR
TAF
KSYR 222325Z 2300/2324 08007KT P6SM FEW022 BKN045
      TEMPO 2300/2304 BKN022
     FM230400 10004KT P6SM BKN025
     FM230700 12004KT 4SM BR OVC015
     FM231400 12005KT P6SM BKN025
     FM231800 13006KT P6SM FEW025 BKN050=

USA.gov is the U.S. government's official web portal to all federal, state and local government web resources and services.